sensor_id;sensor_type;location;lat;lon;timestamp;temperature;humidity
8888;DHT22;4480;52.370;9.748;2023-05-07T00:02:19;10.60;99.90
8888;DHT22;4480;52.370;9.748;2023-05-07T00:04:46;10.60;99.90
8888;DHT22;4480;52.370;9.748;2023-05-07T00:07:13;10.50;99.90
8888;DHT22;4480;52.370;9.748;2023-05-07T00:09:40;10.50;99.90
8888;DHT22;4480;52.370;9.748;2023-05-07T00:12:08;10.50;99.90
8888;DHT22;4480;52.370;9.748;2023-05-07T00:14:34;10.40;99.90
8888;DHT22;4480;52.370;9.748;2023-05-07T00:17:01;10.40;99.90
8888;DHT22;4480;52.370;9.748;2023-05-07T00:19:28;10.40;99.90
8888;DHT22;4480;52.370;9.748;2023-05-07T00:21:55;10.30;99.90
8888;DHT22;4480;52.370;9.748;2023-05-07T00:24:22;10.40;99.90
8888;DHT22;4480;52.370;9.748;2023-05-07T00:26:49;10.40;99.90
8888;DHT22;4480;52.370;9.748;2023-05-07T00:29:17;10.30;99.90
8888;DHT22;4480;52.370;9.748;2023-05-07T00:31:44;10.30;99.90
8888;DHT22;4480;52.370;9.748;2023-05-07T00:34:11;10.30;99.90
8888;DHT22;4480;52.370;9.748;2023-05-07T00:36:38;10.30;99.90
8888;DHT22;4480;52.370;9.748;2023-05-07T00:39:04;10.30;99.90
8888;DHT22;4480;52.370;9.748;2023-05-07T00:41:32;10.30;99.90
8888;DHT22;4480;52.370;9.748;2023-05-07T00:43:59;10.30;99.90
8888;DHT22;4480;52.370;9.748;2023-05-07T00:46:30;10.30;99.90
8888;DHT22;4480;52.370;9.748;2023-05-07T00:48:57;10.30;99.90
8888;DHT22;4480;52.370;9.748;2023-05-07T00:51:25;10.30;99.90
8888;DHT22;4480;52.370;9.748;2023-05-07T00:53:53;10.30;99.90
8888;DHT22;4480;52.370;9.748;2023-05-07T00:56:21;10.20;99.90
8888;DHT22;4480;52.370;9.748;2023-05-07T00:58:48;10.20;99.90
8888;DHT22;4480;52.370;9.748;2023-05-07T01:01:15;10.20;99.90
8888;DHT22;4480;52.370;9.748;2023-05-07T01:03:43;10.20;99.90
8888;DHT22;4480;52.370;9.748;2023-05-07T01:06:10;10.20;99.90
8888;DHT22;4480;52.370;9.748;2023-05-07T01:08:39;10.20;99.90
8888;DHT22;4480;52.370;9.748;2023-05-07T01:11:06;10.10;99.90
8888;DHT22;4480;52.370;9.748;2023-05-07T01:13:34;10.10;99.90
8888;DHT22;4480;52.370;9.748;2023-05-07T01:16:02;10.10;99.90
8888;DHT22;4480;52.370;9.748;2023-05-07T01:18:29;10.10;99.90
8888;DHT22;4480;52.370;9.748;2023-05-07T01:20:58;10.10;99.90
8888;DHT22;4480;52.370;9.748;2023-05-07T01:23:27;10.10;99.90
8888;DHT22;4480;52.370;9.748;2023-05-07T01:25:54;10.10;99.90
8888;DHT22;4480;52.370;9.748;2023-05-07T01:28:21;10.10;99.90
8888;DHT22;4480;52.370;9.748;2023-05-07T01:30:51;10.10;99.90
8888;DHT22;4480;52.370;9.748;2023-05-07T01:33:20;10.20;99.90
8888;DHT22;4480;52.370;9.748;2023-05-07T01:35:50;10.10;99.90
8888;DHT22;4480;52.370;9.748;2023-05-07T01:38:18;10.10;99.90
8888;DHT22;4480;52.370;9.748;2023-05-07T01:40:46;10.10;99.90
8888;DHT22;4480;52.370;9.748;2023-05-07T01:43:14;10.10;99.90
8888;DHT22;4480;52.370;9.748;2023-05-07T01:45:41;10.10;99.90
8888;DHT22;4480;52.370;9.748;2023-05-07T01:48:09;10.10;99.90
8888;DHT22;4480;52.370;9.748;2023-05-07T01:50:37;10.20;99.90
8888;DHT22;4480;52.370;9.748;2023-05-07T01:53:04;10.20;99.90
8888;DHT22;4480;52.370;9.748;2023-05-07T01:55:30;10.20;99.90
8888;DHT22;4480;52.370;9.748;2023-05-07T01:57:59;10.10;99.90
8888;DHT22;4480;52.370;9.748;2023-05-07T02:00:26;10.20;99.90
8888;DHT22;4480;52.370;9.748;2023-05-07T02:02:53;10.20;99.90
8888;DHT22;4480;52.370;9.748;2023-05-07T02:05:20;10.20;99.90
8888;DHT22;4480;52.370;9.748;2023-05-07T02:07:46;10.20;99.90
8888;DHT22;4480;52.370;9.748;2023-05-07T02:10:13;10.20;99.90
8888;DHT22;4480;52.370;9.748;2023-05-07T02:12:40;10.20;99.90
8888;DHT22;4480;52.370;9.748;2023-05-07T02:15:10;10.10;99.90
8888;DHT22;4480;52.370;9.748;2023-05-07T02:17:39;10.10;99.90
8888;DHT22;4480;52.370;9.748;2023-05-07T02:20:07;10.10;99.90
8888;DHT22;4480;52.370;9.748;2023-05-07T02:22:38;10.10;99.90
8888;DHT22;4480;52.370;9.748;2023-05-07T02:25:05;10.10;99.90
8888;DHT22;4480;52.370;9.748;2023-05-07T02:27:32;10.10;99.90
8888;DHT22;4480;52.370;9.748;2023-05-07T02:29:59;10.10;99.90
8888;DHT22;4480;52.370;9.748;2023-05-07T02:32:27;10.10;99.90
8888;DHT22;4480;52.370;9.748;2023-05-07T02:34:53;10.10;99.90
8888;DHT22;4480;52.370;9.748;2023-05-07T02:37:20;10.20;99.90
8888;DHT22;4480;52.370;9.748;2023-05-07T02:39:47;10.20;99.90
8888;DHT22;4480;52.370;9.748;2023-05-07T02:42:14;10.20;99.90
8888;DHT22;4480;52.370;9.748;2023-05-07T02:44:40;10.20;99.90
8888;DHT22;4480;52.370;9.748;2023-05-07T02:47:07;10.20;99.90
8888;DHT22;4480;52.370;9.748;2023-05-07T02:49:36;10.20;99.90
8888;DHT22;4480;52.370;9.748;2023-05-07T02:52:03;10.20;99.90
8888;DHT22;4480;52.370;9.748;2023-05-07T02:54:29;10.10;99.90
8888;DHT22;4480;52.370;9.748;2023-05-07T02:56:56;10.10;99.90
8888;DHT22;4480;52.370;9.748;2023-05-07T02:59:23;10.10;99.90
8888;DHT22;4480;52.370;9.748;2023-05-07T03:01:51;10.10;99.90
8888;DHT22;4480;52.370;9.748;2023-05-07T03:04:18;10.10;99.90
8888;DHT22;4480;52.370;9.748;2023-05-07T03:06:47;10.10;99.90
8888;DHT22;4480;52.370;9.748;2023-05-07T03:09:13;10.10;99.90
8888;DHT22;4480;52.370;9.748;2023-05-07T03:11:40;10.10;99.90
8888;DHT22;4480;52.370;9.748;2023-05-07T03:14:07;10.10;99.90
8888;DHT22;4480;52.370;9.748;2023-05-07T03:16:34;10.10;99.90
8888;DHT22;4480;52.370;9.748;2023-05-07T03:19:00;10.10;99.90
8888;DHT22;4480;52.370;9.748;2023-05-07T03:21:27;10.20;99.90
8888;DHT22;4480;52.370;9.748;2023-05-07T03:23:56;10.10;99.90
8888;DHT22;4480;52.370;9.748;2023-05-07T03:26:22;10.10;99.90
8888;DHT22;4480;52.370;9.748;2023-05-07T03:28:49;10.10;99.90
8888;DHT22;4480;52.370;9.748;2023-05-07T03:31:16;10.10;99.90
8888;DHT22;4480;52.370;9.748;2023-05-07T03:33:50;10.00;99.90
8888;DHT22;4480;52.370;9.748;2023-05-07T03:36:17;10.00;99.90
8888;DHT22;4480;52.370;9.748;2023-05-07T03:38:44;10.00;99.90
8888;DHT22;4480;52.370;9.748;2023-05-07T03:41:12;9.90;99.90
8888;DHT22;4480;52.370;9.748;2023-05-07T03:43:39;9.90;99.90
8888;DHT22;4480;52.370;9.748;2023-05-07T03:46:06;9.90;99.90
8888;DHT22;4480;52.370;9.748;2023-05-07T03:48:33;9.90;99.90
8888;DHT22;4480;52.370;9.748;2023-05-07T03:50:59;9.90;99.90
8888;DHT22;4480;52.370;9.748;2023-05-07T03:53:26;9.90;99.90
8888;DHT22;4480;52.370;9.748;2023-05-07T03:55:53;9.90;99.90
8888;DHT22;4480;52.370;9.748;2023-05-07T03:58:21;9.90;99.90
8888;DHT22;4480;52.370;9.748;2023-05-07T04:00:48;9.90;99.90
8888;DHT22;4480;52.370;9.748;2023-05-07T04:03:15;9.90;99.90
8888;DHT22;4480;52.370;9.748;2023-05-07T04:05:42;9.90;99.90
8888;DHT22;4480;52.370;9.748;2023-05-07T04:11:39;9.90;99.90
8888;DHT22;4480;52.370;9.748;2023-05-07T04:14:06;9.90;99.90
8888;DHT22;4480;52.370;9.748;2023-05-07T04:16:34;9.90;99.90
8888;DHT22;4480;52.370;9.748;2023-05-07T04:19:01;9.90;99.90
8888;DHT22;4480;52.370;9.748;2023-05-07T04:21:27;9.90;99.90
8888;DHT22;4480;52.370;9.748;2023-05-07T04:23:55;9.90;99.90
8888;DHT22;4480;52.370;9.748;2023-05-07T04:26:22;9.90;99.90
8888;DHT22;4480;52.370;9.748;2023-05-07T04:28:51;9.90;99.90
8888;DHT22;4480;52.370;9.748;2023-05-07T04:31:17;9.90;99.90
8888;DHT22;4480;52.370;9.748;2023-05-07T04:33:45;9.90;99.90
8888;DHT22;4480;52.370;9.748;2023-05-07T04:36:11;10.00;99.90
8888;DHT22;4480;52.370;9.748;2023-05-07T04:38:38;10.00;99.90
8888;DHT22;4480;52.370;9.748;2023-05-07T04:41:06;10.00;99.90
8888;DHT22;4480;52.370;9.748;2023-05-07T04:43:33;10.00;99.90
8888;DHT22;4480;52.370;9.748;2023-05-07T04:46:01;10.00;99.90
8888;DHT22;4480;52.370;9.748;2023-05-07T04:48:28;10.00;99.90
8888;DHT22;4480;52.370;9.748;2023-05-07T04:50:55;10.00;99.90
8888;DHT22;4480;52.370;9.748;2023-05-07T04:53:22;10.00;99.90
8888;DHT22;4480;52.370;9.748;2023-05-07T04:55:49;10.00;99.90
8888;DHT22;4480;52.370;9.748;2023-05-07T04:58:21;10.00;99.90
8888;DHT22;4480;52.370;9.748;2023-05-07T05:00:47;10.00;99.90
8888;DHT22;4480;52.370;9.748;2023-05-07T05:03:16;10.00;99.90
8888;DHT22;4480;52.370;9.748;2023-05-07T05:05:43;10.00;99.90
8888;DHT22;4480;52.370;9.748;2023-05-07T05:08:10;10.00;99.90
8888;DHT22;4480;52.370;9.748;2023-05-07T05:10:36;10.00;99.90
8888;DHT22;4480;52.370;9.748;2023-05-07T05:13:03;10.00;99.90
8888;DHT22;4480;52.370;9.748;2023-05-07T05:15:30;10.00;99.90
8888;DHT22;4480;52.370;9.748;2023-05-07T05:17:57;10.00;99.90
8888;DHT22;4480;52.370;9.748;2023-05-07T05:20:25;10.00;99.90
8888;DHT22;4480;52.370;9.748;2023-05-07T05:22:52;10.10;99.90
8888;DHT22;4480;52.370;9.748;2023-05-07T05:25:18;10.10;99.90
8888;DHT22;4480;52.370;9.748;2023-05-07T05:27:45;10.10;99.90
8888;DHT22;4480;52.370;9.748;2023-05-07T05:30:12;10.20;99.90
8888;DHT22;4480;52.370;9.748;2023-05-07T05:32:39;10.20;99.90
8888;DHT22;4480;52.370;9.748;2023-05-07T05:35:07;10.20;99.90
8888;DHT22;4480;52.370;9.748;2023-05-07T05:37:35;10.30;99.90
8888;DHT22;4480;52.370;9.748;2023-05-07T05:40:02;10.30;99.90
8888;DHT22;4480;52.370;9.748;2023-05-07T05:42:29;10.30;99.90
8888;DHT22;4480;52.370;9.748;2023-05-07T05:44:56;10.30;99.90
8888;DHT22;4480;52.370;9.748;2023-05-07T05:47:23;10.30;99.90
8888;DHT22;4480;52.370;9.748;2023-05-07T05:49:50;10.30;99.90
8888;DHT22;4480;52.370;9.748;2023-05-07T05:52:16;10.40;99.90
8888;DHT22;4480;52.370;9.748;2023-05-07T05:54:44;10.50;99.90
8888;DHT22;4480;52.370;9.748;2023-05-07T05:57:11;10.50;99.90
8888;DHT22;4480;52.370;9.748;2023-05-07T05:59:38;10.50;99.90
8888;DHT22;4480;52.370;9.748;2023-05-07T06:02:04;10.50;99.90
8888;DHT22;4480;52.370;9.748;2023-05-07T06:04:31;10.50;99.90
8888;DHT22;4480;52.370;9.748;2023-05-07T06:06:58;10.50;99.90
8888;DHT22;4480;52.370;9.748;2023-05-07T06:09:25;10.50;99.90
8888;DHT22;4480;52.370;9.748;2023-05-07T06:11:53;10.50;99.90
8888;DHT22;4480;52.370;9.748;2023-05-07T06:14:20;10.60;99.90
8888;DHT22;4480;52.370;9.748;2023-05-07T06:16:46;10.60;99.90
8888;DHT22;4480;52.370;9.748;2023-05-07T06:19:13;10.60;99.90
8888;DHT22;4480;52.370;9.748;2023-05-07T06:21:40;10.60;99.90
8888;DHT22;4480;52.370;9.748;2023-05-07T06:24:07;10.70;99.90
8888;DHT22;4480;52.370;9.748;2023-05-07T06:26:34;10.70;99.90
8888;DHT22;4480;52.370;9.748;2023-05-07T06:29:02;10.70;99.90
8888;DHT22;4480;52.370;9.748;2023-05-07T06:31:30;10.80;99.90
8888;DHT22;4480;52.370;9.748;2023-05-07T06:33:57;10.80;99.90
8888;DHT22;4480;52.370;9.748;2023-05-07T06:36:24;10.90;99.90
8888;DHT22;4480;52.370;9.748;2023-05-07T06:38:51;10.90;99.90
8888;DHT22;4480;52.370;9.748;2023-05-07T06:41:18;11.10;99.90
8888;DHT22;4480;52.370;9.748;2023-05-07T06:43:45;11.20;99.90
8888;DHT22;4480;52.370;9.748;2023-05-07T06:46:14;11.40;99.90
8888;DHT22;4480;52.370;9.748;2023-05-07T06:48:41;11.60;99.90
8888;DHT22;4480;52.370;9.748;2023-05-07T06:51:07;11.70;99.90
8888;DHT22;4480;52.370;9.748;2023-05-07T06:53:35;11.80;99.90
8888;DHT22;4480;52.370;9.748;2023-05-07T06:56:01;11.80;99.90
8888;DHT22;4480;52.370;9.748;2023-05-07T06:58:28;11.80;99.90
8888;DHT22;4480;52.370;9.748;2023-05-07T07:00:55;11.70;99.90
8888;DHT22;4480;52.370;9.748;2023-05-07T07:03:23;11.70;99.90
8888;DHT22;4480;52.370;9.748;2023-05-07T07:05:52;11.70;99.90
8888;DHT22;4480;52.370;9.748;2023-05-07T07:08:18;11.80;99.90
8888;DHT22;4480;52.370;9.748;2023-05-07T07:10:46;11.80;99.90
8888;DHT22;4480;52.370;9.748;2023-05-07T07:13:13;11.80;99.90
8888;DHT22;4480;52.370;9.748;2023-05-07T07:15:40;11.80;99.90
8888;DHT22;4480;52.370;9.748;2023-05-07T07:18:07;11.90;99.90
8888;DHT22;4480;52.370;9.748;2023-05-07T07:20:35;12.00;99.90
8888;DHT22;4480;52.370;9.748;2023-05-07T07:23:02;12.10;99.90
8888;DHT22;4480;52.370;9.748;2023-05-07T07:25:28;12.20;99.90
8888;DHT22;4480;52.370;9.748;2023-05-07T07:27:55;12.30;99.90
8888;DHT22;4480;52.370;9.748;2023-05-07T07:30:22;12.40;99.90
8888;DHT22;4480;52.370;9.748;2023-05-07T07:32:49;12.50;99.90
8888;DHT22;4480;52.370;9.748;2023-05-07T07:35:15;12.60;99.90
8888;DHT22;4480;52.370;9.748;2023-05-07T07:37:43;12.60;99.90
8888;DHT22;4480;52.370;9.748;2023-05-07T07:40:12;12.80;99.90
8888;DHT22;4480;52.370;9.748;2023-05-07T07:42:38;12.90;99.90
8888;DHT22;4480;52.370;9.748;2023-05-07T07:45:06;13.10;99.80
8888;DHT22;4480;52.370;9.748;2023-05-07T07:47:33;13.20;99.20
8888;DHT22;4480;52.370;9.748;2023-05-07T07:50:00;13.30;99.10
8888;DHT22;4480;52.370;9.748;2023-05-07T07:52:27;13.60;98.00
8888;DHT22;4480;52.370;9.748;2023-05-07T07:54:55;13.60;96.80
8888;DHT22;4480;52.370;9.748;2023-05-07T07:57:22;13.60;96.00
8888;DHT22;4480;52.370;9.748;2023-05-07T07:59:49;13.60;95.60
8888;DHT22;4480;52.370;9.748;2023-05-07T08:02:16;13.60;95.60
8888;DHT22;4480;52.370;9.748;2023-05-07T08:04:42;13.70;95.30
8888;DHT22;4480;52.370;9.748;2023-05-07T08:07:09;13.90;95.00
8888;DHT22;4480;52.370;9.748;2023-05-07T08:09:37;14.00;93.50
8888;DHT22;4480;52.370;9.748;2023-05-07T08:12:06;14.00;92.90
8888;DHT22;4480;52.370;9.748;2023-05-07T08:14:33;14.00;92.70
8888;DHT22;4480;52.370;9.748;2023-05-07T08:17:00;14.00;92.70
8888;DHT22;4480;52.370;9.748;2023-05-07T08:19:27;14.10;92.20
8888;DHT22;4480;52.370;9.748;2023-05-07T08:21:54;14.20;91.50
8888;DHT22;4480;52.370;9.748;2023-05-07T08:24:21;14.30;91.50
8888;DHT22;4480;52.370;9.748;2023-05-07T08:26:47;14.40;91.20
8888;DHT22;4480;52.370;9.748;2023-05-07T08:29:16;14.40;90.40
8888;DHT22;4480;52.370;9.748;2023-05-07T08:31:43;14.40;90.40
8888;DHT22;4480;52.370;9.748;2023-05-07T08:34:10;14.40;90.90
8888;DHT22;4480;52.370;9.748;2023-05-07T08:36:36;14.50;90.70
8888;DHT22;4480;52.370;9.748;2023-05-07T08:39:03;14.50;90.20
8888;DHT22;4480;52.370;9.748;2023-05-07T08:41:30;14.40;89.90
8888;DHT22;4480;52.370;9.748;2023-05-07T08:43:58;14.30;90.70
8888;DHT22;4480;52.370;9.748;2023-05-07T08:46:29;14.30;90.90
8888;DHT22;4480;52.370;9.748;2023-05-07T08:48:57;14.30;90.60
8888;DHT22;4480;52.370;9.748;2023-05-07T08:51:25;14.30;90.30
8888;DHT22;4480;52.370;9.748;2023-05-07T08:53:52;14.10;90.50
8888;DHT22;4480;52.370;9.748;2023-05-07T08:56:19;14.10;90.70
8888;DHT22;4480;52.370;9.748;2023-05-07T08:58:47;14.20;90.80
8888;DHT22;4480;52.370;9.748;2023-05-07T09:01:15;14.30;90.50
8888;DHT22;4480;52.370;9.748;2023-05-07T09:03:45;14.50;90.00
8888;DHT22;4480;52.370;9.748;2023-05-07T09:06:12;14.60;89.20
8888;DHT22;4480;52.370;9.748;2023-05-07T09:08:39;14.70;88.00
8888;DHT22;4480;52.370;9.748;2023-05-07T09:11:06;14.60;87.70
8888;DHT22;4480;52.370;9.748;2023-05-07T09:13:32;14.60;88.10
8888;DHT22;4480;52.370;9.748;2023-05-07T09:16:10;14.60;87.60
8888;DHT22;4480;52.370;9.748;2023-05-07T09:18:41;14.60;88.00
8888;DHT22;4480;52.370;9.748;2023-05-07T09:21:11;14.50;88.40
8888;DHT22;4480;52.370;9.748;2023-05-07T09:23:38;14.50;88.20
8888;DHT22;4480;52.370;9.748;2023-05-07T09:26:06;14.60;88.50
8888;DHT22;4480;52.370;9.748;2023-05-07T09:28:38;14.70;87.10
8888;DHT22;4480;52.370;9.748;2023-05-07T09:31:05;14.60;86.80
8888;DHT22;4480;52.370;9.748;2023-05-07T09:33:32;14.50;87.00
8888;DHT22;4480;52.370;9.748;2023-05-07T09:36:02;14.30;87.80
8888;DHT22;4480;52.370;9.748;2023-05-07T09:38:31;14.30;88.90
8888;DHT22;4480;52.370;9.748;2023-05-07T09:41:05;14.30;89.10
8888;DHT22;4480;52.370;9.748;2023-05-07T09:43:32;14.40;88.70
8888;DHT22;4480;52.370;9.748;2023-05-07T09:46:03;14.40;87.40
8888;DHT22;4480;52.370;9.748;2023-05-07T09:48:30;14.50;88.00
8888;DHT22;4480;52.370;9.748;2023-05-07T09:53:27;14.60;85.40
8888;DHT22;4480;52.370;9.748;2023-05-07T09:55:57;14.40;85.70
8888;DHT22;4480;52.370;9.748;2023-05-07T09:58:25;14.40;86.70
8888;DHT22;4480;52.370;9.748;2023-05-07T10:00:52;14.40;87.20
8888;DHT22;4480;52.370;9.748;2023-05-07T10:03:20;14.30;87.10
8888;DHT22;4480;52.370;9.748;2023-05-07T10:05:49;14.20;87.80
8888;DHT22;4480;52.370;9.748;2023-05-07T10:08:17;14.30;88.30
8888;DHT22;4480;52.370;9.748;2023-05-07T10:10:45;14.40;87.50
8888;DHT22;4480;52.370;9.748;2023-05-07T10:13:14;14.50;87.40
8888;DHT22;4480;52.370;9.748;2023-05-07T10:15:41;14.50;86.20
8888;DHT22;4480;52.370;9.748;2023-05-07T10:18:08;14.60;86.30
8888;DHT22;4480;52.370;9.748;2023-05-07T10:20:36;14.70;85.90
8888;DHT22;4480;52.370;9.748;2023-05-07T10:23:04;14.70;85.10
8888;DHT22;4480;52.370;9.748;2023-05-07T10:25:32;14.80;84.30
8888;DHT22;4480;52.370;9.748;2023-05-07T10:28:02;14.90;83.80
8888;DHT22;4480;52.370;9.748;2023-05-07T10:30:40;15.00;83.00
8888;DHT22;4480;52.370;9.748;2023-05-07T10:33:13;15.00;82.20
8888;DHT22;4480;52.370;9.748;2023-05-07T10:35:43;15.10;82.00
8888;DHT22;4480;52.370;9.748;2023-05-07T10:38:10;15.10;81.30
8888;DHT22;4480;52.370;9.748;2023-05-07T10:40:37;15.10;80.90
8888;DHT22;4480;52.370;9.748;2023-05-07T10:43:05;15.20;81.00
8888;DHT22;4480;52.370;9.748;2023-05-07T10:45:33;15.30;80.10
8888;DHT22;4480;52.370;9.748;2023-05-07T10:48:10;15.20;79.80
8888;DHT22;4480;52.370;9.748;2023-05-07T10:50:38;15.30;79.50
8888;DHT22;4480;52.370;9.748;2023-05-07T10:53:21;15.20;78.90
8888;DHT22;4480;52.370;9.748;2023-05-07T10:55:53;15.20;79.20
8888;DHT22;4480;52.370;9.748;2023-05-07T10:58:38;15.20;79.20
8888;DHT22;4480;52.370;9.748;2023-05-07T11:01:06;15.20;78.40
8888;DHT22;4480;52.370;9.748;2023-05-07T11:03:33;15.20;78.20
8888;DHT22;4480;52.370;9.748;2023-05-07T11:06:11;15.20;77.70
8888;DHT22;4480;52.370;9.748;2023-05-07T11:08:54;15.30;78.00
8888;DHT22;4480;52.370;9.748;2023-05-07T11:11:44;15.40;76.90
8888;DHT22;4480;52.370;9.748;2023-05-07T11:14:11;15.60;77.40
8888;DHT22;4480;52.370;9.748;2023-05-07T11:16:41;15.80;75.60
8888;DHT22;4480;52.370;9.748;2023-05-07T11:19:08;15.90;74.50
8888;DHT22;4480;52.370;9.748;2023-05-07T11:21:35;16.00;73.70
8888;DHT22;4480;52.370;9.748;2023-05-07T11:24:03;16.10;73.20
8888;DHT22;4480;52.370;9.748;2023-05-07T11:26:41;16.10;72.80
8888;DHT22;4480;52.370;9.748;2023-05-07T11:29:11;16.10;72.90
8888;DHT22;4480;52.370;9.748;2023-05-07T11:31:39;16.00;71.80
8888;DHT22;4480;52.370;9.748;2023-05-07T11:34:06;16.00;71.90
8888;DHT22;4480;52.370;9.748;2023-05-07T11:36:34;16.10;71.10
8888;DHT22;4480;52.370;9.748;2023-05-07T11:39:00;16.10;71.00
8888;DHT22;4480;52.370;9.748;2023-05-07T11:41:34;16.40;70.50
8888;DHT22;4480;52.370;9.748;2023-05-07T11:44:01;16.70;69.20
8888;DHT22;4480;52.370;9.748;2023-05-07T11:46:28;16.80;67.30
8888;DHT22;4480;52.370;9.748;2023-05-07T11:48:56;16.80;66.70
8888;DHT22;4480;52.370;9.748;2023-05-07T11:51:24;16.90;66.50
8888;DHT22;4480;52.370;9.748;2023-05-07T11:53:53;16.80;65.70
8888;DHT22;4480;52.370;9.748;2023-05-07T11:56:20;16.70;65.70
8888;DHT22;4480;52.370;9.748;2023-05-07T11:58:48;16.50;66.00
8888;DHT22;4480;52.370;9.748;2023-05-07T12:01:16;16.40;66.10
8888;DHT22;4480;52.370;9.748;2023-05-07T12:03:45;16.30;66.70
8888;DHT22;4480;52.370;9.748;2023-05-07T12:06:15;16.40;66.80
8888;DHT22;4480;52.370;9.748;2023-05-07T12:08:42;16.50;66.30
8888;DHT22;4480;52.370;9.748;2023-05-07T12:11:13;16.60;65.80
8888;DHT22;4480;52.370;9.748;2023-05-07T12:13:42;16.60;65.50
8888;DHT22;4480;52.370;9.748;2023-05-07T12:16:09;16.60;65.40
8888;DHT22;4480;52.370;9.748;2023-05-07T12:18:36;16.50;65.20
8888;DHT22;4480;52.370;9.748;2023-05-07T12:21:04;16.40;65.30
8888;DHT22;4480;52.370;9.748;2023-05-07T12:23:34;16.40;66.20
8888;DHT22;4480;52.370;9.748;2023-05-07T12:26:01;16.40;65.20
8888;DHT22;4480;52.370;9.748;2023-05-07T12:28:27;16.50;65.00
8888;DHT22;4480;52.370;9.748;2023-05-07T12:30:56;16.50;64.60
8888;DHT22;4480;52.370;9.748;2023-05-07T12:33:25;16.40;65.00
8888;DHT22;4480;52.370;9.748;2023-05-07T12:35:54;16.30;65.40
8888;DHT22;4480;52.370;9.748;2023-05-07T12:38:21;16.30;65.80
8888;DHT22;4480;52.370;9.748;2023-05-07T12:40:50;16.40;66.30
8888;DHT22;4480;52.370;9.748;2023-05-07T12:43:18;16.50;65.20
8888;DHT22;4480;52.370;9.748;2023-05-07T12:45:46;16.60;65.20
8888;DHT22;4480;52.370;9.748;2023-05-07T12:48:13;16.60;64.80
8888;DHT22;4480;52.370;9.748;2023-05-07T12:50:40;16.60;65.00
8888;DHT22;4480;52.370;9.748;2023-05-07T12:53:07;16.50;64.80
8888;DHT22;4480;52.370;9.748;2023-05-07T12:55:43;16.40;64.70
8888;DHT22;4480;52.370;9.748;2023-05-07T12:58:16;16.30;65.20
8888;DHT22;4480;52.370;9.748;2023-05-07T13:00:43;16.30;65.50
8888;DHT22;4480;52.370;9.748;2023-05-07T13:03:11;16.40;65.40
8888;DHT22;4480;52.370;9.748;2023-05-07T13:05:38;16.40;64.60
8888;DHT22;4480;52.370;9.748;2023-05-07T13:08:05;16.40;64.50
8888;DHT22;4480;52.370;9.748;2023-05-07T13:10:32;16.50;64.50
8888;DHT22;4480;52.370;9.748;2023-05-07T13:12:59;16.50;64.30
8888;DHT22;4480;52.370;9.748;2023-05-07T13:15:27;16.60;64.20
8888;DHT22;4480;52.370;9.748;2023-05-07T13:17:54;16.70;64.00
8888;DHT22;4480;52.370;9.748;2023-05-07T13:20:21;16.80;63.60
8888;DHT22;4480;52.370;9.748;2023-05-07T13:22:48;16.90;63.40
8888;DHT22;4480;52.370;9.748;2023-05-07T13:25:15;17.10;63.00
8888;DHT22;4480;52.370;9.748;2023-05-07T13:27:42;17.10;62.50
8888;DHT22;4480;52.370;9.748;2023-05-07T13:30:09;17.30;62.20
8888;DHT22;4480;52.370;9.748;2023-05-07T13:32:37;17.50;61.70
8888;DHT22;4480;52.370;9.748;2023-05-07T13:35:04;17.40;60.80
8888;DHT22;4480;52.370;9.748;2023-05-07T13:37:31;17.40;60.70
8888;DHT22;4480;52.370;9.748;2023-05-07T13:39:58;17.30;60.60
8888;DHT22;4480;52.370;9.748;2023-05-07T13:42:25;17.20;60.80
8888;DHT22;4480;52.370;9.748;2023-05-07T13:44:51;17.20;60.90
8888;DHT22;4480;52.370;9.748;2023-05-07T13:47:18;17.20;61.30
8888;DHT22;4480;52.370;9.748;2023-05-07T13:49:49;17.20;61.40
8888;DHT22;4480;52.370;9.748;2023-05-07T13:52:16;17.20;61.20
8888;DHT22;4480;52.370;9.748;2023-05-07T13:54:43;17.10;61.00
8888;DHT22;4480;52.370;9.748;2023-05-07T13:57:09;17.00;61.60
8888;DHT22;4480;52.370;9.748;2023-05-07T13:59:36;17.00;61.80
8888;DHT22;4480;52.370;9.748;2023-05-07T14:02:03;17.00;61.90
8888;DHT22;4480;52.370;9.748;2023-05-07T14:04:30;17.10;62.30
8888;DHT22;4480;52.370;9.748;2023-05-07T14:06:58;17.30;62.70
8888;DHT22;4480;52.370;9.748;2023-05-07T14:09:25;17.60;61.50
8888;DHT22;4480;52.370;9.748;2023-05-07T14:11:52;17.70;60.30
8888;DHT22;4480;52.370;9.748;2023-05-07T14:14:19;17.60;60.20
8888;DHT22;4480;52.370;9.748;2023-05-07T14:16:46;17.40;60.30
8888;DHT22;4480;52.370;9.748;2023-05-07T14:19:13;17.50;60.80
8888;DHT22;4480;52.370;9.748;2023-05-07T14:21:39;17.60;60.40
8888;DHT22;4480;52.370;9.748;2023-05-07T14:24:08;17.50;60.50
8888;DHT22;4480;52.370;9.748;2023-05-07T14:26:35;17.40;60.80
8888;DHT22;4480;52.370;9.748;2023-05-07T14:29:02;17.30;61.10
8888;DHT22;4480;52.370;9.748;2023-05-07T14:31:28;17.20;61.30
8888;DHT22;4480;52.370;9.748;2023-05-07T14:33:55;17.20;61.50
8888;DHT22;4480;52.370;9.748;2023-05-07T14:36:23;17.10;61.60
8888;DHT22;4480;52.370;9.748;2023-05-07T14:38:51;17.00;62.00
8888;DHT22;4480;52.370;9.748;2023-05-07T14:41:19;16.90;62.40
8888;DHT22;4480;52.370;9.748;2023-05-07T14:43:47;16.80;62.70
8888;DHT22;4480;52.370;9.748;2023-05-07T14:46:15;16.70;62.90
8888;DHT22;4480;52.370;9.748;2023-05-07T14:48:43;16.60;63.30
8888;DHT22;4480;52.370;9.748;2023-05-07T14:51:10;16.60;63.50
8888;DHT22;4480;52.370;9.748;2023-05-07T14:53:37;16.50;63.50
8888;DHT22;4480;52.370;9.748;2023-05-07T14:56:04;16.40;63.80
8888;DHT22;4480;52.370;9.748;2023-05-07T14:58:32;16.40;64.00
8888;DHT22;4480;52.370;9.748;2023-05-07T15:00:59;16.30;64.30
8888;DHT22;4480;52.370;9.748;2023-05-07T15:03:27;16.30;64.50
8888;DHT22;4480;52.370;9.748;2023-05-07T15:05:53;16.20;65.00
8888;DHT22;4480;52.370;9.748;2023-05-07T15:08:20;16.10;65.40
8888;DHT22;4480;52.370;9.748;2023-05-07T15:10:47;16.10;65.90
8888;DHT22;4480;52.370;9.748;2023-05-07T15:13:14;16.10;66.30
8888;DHT22;4480;52.370;9.748;2023-05-07T15:15:42;16.20;66.30
8888;DHT22;4480;52.370;9.748;2023-05-07T15:18:10;16.30;66.10
8888;DHT22;4480;52.370;9.748;2023-05-07T15:20:37;16.40;66.10
8888;DHT22;4480;52.370;9.748;2023-05-07T15:23:04;16.50;65.80
8888;DHT22;4480;52.370;9.748;2023-05-07T15:25:31;16.50;65.40
8888;DHT22;4480;52.370;9.748;2023-05-07T15:27:59;16.40;65.20
8888;DHT22;4480;52.370;9.748;2023-05-07T15:30:25;16.30;65.50
8888;DHT22;4480;52.370;9.748;2023-05-07T15:32:54;16.20;65.70
8888;DHT22;4480;52.370;9.748;2023-05-07T15:35:21;16.10;66.10
8888;DHT22;4480;52.370;9.748;2023-05-07T15:37:48;16.10;66.40
8888;DHT22;4480;52.370;9.748;2023-05-07T15:40:16;16.20;66.50
8888;DHT22;4480;52.370;9.748;2023-05-07T15:42:44;16.20;66.40
8888;DHT22;4480;52.370;9.748;2023-05-07T15:45:11;16.20;66.00
8888;DHT22;4480;52.370;9.748;2023-05-07T15:47:38;16.20;65.80
8888;DHT22;4480;52.370;9.748;2023-05-07T15:50:07;16.10;66.10
8888;DHT22;4480;52.370;9.748;2023-05-07T15:52:34;16.10;66.80
8888;DHT22;4480;52.370;9.748;2023-05-07T15:55:01;16.20;66.90
8888;DHT22;4480;52.370;9.748;2023-05-07T15:57:28;16.30;66.10
8888;DHT22;4480;52.370;9.748;2023-05-07T15:59:57;16.40;65.60
8888;DHT22;4480;52.370;9.748;2023-05-07T16:02:24;16.60;64.40
8888;DHT22;4480;52.370;9.748;2023-05-07T16:04:51;16.70;63.60
8888;DHT22;4480;52.370;9.748;2023-05-07T16:07:19;16.70;63.10
8888;DHT22;4480;52.370;9.748;2023-05-07T16:09:46;16.70;63.00
8888;DHT22;4480;52.370;9.748;2023-05-07T16:12:13;16.70;63.20